sensor_id;sensor_type;location;lat;lon;timestamp;temperature;humidity
18305;DHT22;9278;52.156;21.048;2023-06-19T00:01:42;24.00;51.30
18305;DHT22;9278;52.156;21.048;2023-06-19T00:04:10;24.00;51.60
18305;DHT22;9278;52.156;21.048;2023-06-19T00:06:39;24.00;51.60
18305;DHT22;9278;52.156;21.048;2023-06-19T00:09:07;24.00;51.60
18305;DHT22;9278;52.156;21.048;2023-06-19T00:11:37;24.00;51.90
18305;DHT22;9278;52.156;21.048;2023-06-19T00:14:05;24.00;51.70
18305;DHT22;9278;52.156;21.048;2023-06-19T00:16:33;24.00;51.10
18305;DHT22;9278;52.156;21.048;2023-06-19T00:19:02;24.00;51.20
18305;DHT22;9278;52.156;21.048;2023-06-19T00:21:30;24.00;52.50
18305;DHT22;9278;52.156;21.048;2023-06-19T00:23:58;24.00;50.40
18305;DHT22;9278;52.156;21.048;2023-06-19T00:26:26;24.20;50.80
18305;DHT22;9278;52.156;21.048;2023-06-19T00:28:56;24.00;50.90
18305;DHT22;9278;52.156;21.048;2023-06-19T00:31:25;24.00;52.00
18305;DHT22;9278;52.156;21.048;2023-06-19T00:33:54;24.00;50.70
18305;DHT22;9278;52.156;21.048;2023-06-19T00:36:24;24.00;51.00
18305;DHT22;9278;52.156;21.048;2023-06-19T00:38:53;23.90;77.40
18305;DHT22;9278;52.156;21.048;2023-06-19T00:41:21;23.90;51.60
18305;DHT22;9278;52.156;21.048;2023-06-19T00:43:50;23.80;77.40
18305;DHT22;9278;52.156;21.048;2023-06-19T00:46:21;23.90;51.90
18305;DHT22;9278;52.156;21.048;2023-06-19T00:48:50;23.80;51.70
18305;DHT22;9278;52.156;21.048;2023-06-19T00:51:18;23.60;51.00
18305;DHT22;9278;52.156;21.048;2023-06-19T00:53:47;23.70;53.60
18305;DHT22;9278;52.156;21.048;2023-06-19T00:56:15;23.70;51.60
18305;DHT22;9278;52.156;21.048;2023-06-19T00:58:45;23.70;52.40
18305;DHT22;9278;52.156;21.048;2023-06-19T01:01:14;23.70;52.40
18305;DHT22;9278;52.156;21.048;2023-06-19T01:03:44;23.70;53.10
18305;DHT22;9278;52.156;21.048;2023-06-19T01:06:15;23.60;51.50
18305;DHT22;9278;52.156;21.048;2023-06-19T01:08:54;23.70;51.40
18305;DHT22;9278;52.156;21.048;2023-06-19T01:11:33;23.70;53.00
18305;DHT22;9278;52.156;21.048;2023-06-19T01:14:08;23.70;52.40
18305;DHT22;9278;52.156;21.048;2023-06-19T01:16:37;23.70;52.50
18305;DHT22;9278;52.156;21.048;2023-06-19T01:19:10;23.70;51.70
18305;DHT22;9278;52.156;21.048;2023-06-19T01:21:39;23.70;52.40
18305;DHT22;9278;52.156;21.048;2023-06-19T01:24:09;23.70;50.70
18305;DHT22;9278;52.156;21.048;2023-06-19T01:26:39;23.70;53.60
18305;DHT22;9278;52.156;21.048;2023-06-19T01:29:08;23.60;52.00
18305;DHT22;9278;52.156;21.048;2023-06-19T01:31:41;23.70;51.80
18305;DHT22;9278;52.156;21.048;2023-06-19T01:34:10;23.70;52.80
18305;DHT22;9278;52.156;21.048;2023-06-19T01:36:40;23.80;51.80
18305;DHT22;9278;52.156;21.048;2023-06-19T01:39:11;23.70;51.50
18305;DHT22;9278;52.156;21.048;2023-06-19T01:41:41;23.60;51.20
18305;DHT22;9278;52.156;21.048;2023-06-19T01:44:11;23.60;51.50
18305;DHT22;9278;52.156;21.048;2023-06-19T01:46:39;23.70;51.40
18305;DHT22;9278;52.156;21.048;2023-06-19T01:49:08;23.60;50.90
18305;DHT22;9278;52.156;21.048;2023-06-19T01:51:37;23.60;51.70
18305;DHT22;9278;52.156;21.048;2023-06-19T01:54:06;23.70;51.10
18305;DHT22;9278;52.156;21.048;2023-06-19T01:56:37;23.60;51.00
18305;DHT22;9278;52.156;21.048;2023-06-19T01:59:05;23.70;51.00
18305;DHT22;9278;52.156;21.048;2023-06-19T02:01:34;23.70;51.80
18305;DHT22;9278;52.156;21.048;2023-06-19T02:04:02;23.70;50.70
18305;DHT22;9278;52.156;21.048;2023-06-19T02:06:31;23.70;50.80
18305;DHT22;9278;52.156;21.048;2023-06-19T02:08:59;23.60;51.60
18305;DHT22;9278;52.156;21.048;2023-06-19T02:11:28;23.60;52.00
18305;DHT22;9278;52.156;21.048;2023-06-19T02:13:57;23.60;52.20
18305;DHT22;9278;52.156;21.048;2023-06-19T02:16:26;23.60;50.80
18305;DHT22;9278;52.156;21.048;2023-06-19T02:18:54;23.60;76.20
18305;DHT22;9278;52.156;21.048;2023-06-19T02:21:23;23.60;51.50
18305;DHT22;9278;52.156;21.048;2023-06-19T02:23:51;23.70;50.20
18305;DHT22;9278;52.156;21.048;2023-06-19T02:26:20;23.60;50.50
18305;DHT22;9278;52.156;21.048;2023-06-19T02:28:49;23.60;50.90
18305;DHT22;9278;52.156;21.048;2023-06-19T02:31:18;23.60;51.20
18305;DHT22;9278;52.156;21.048;2023-06-19T02:33:46;23.60;51.20
18305;DHT22;9278;52.156;21.048;2023-06-19T02:36:15;23.40;51.30
18305;DHT22;9278;52.156;21.048;2023-06-19T02:38:46;23.30;52.20
18305;DHT22;9278;52.156;21.048;2023-06-19T02:41:14;23.40;52.80
18305;DHT22;9278;52.156;21.048;2023-06-19T02:43:43;23.40;53.10
18305;DHT22;9278;52.156;21.048;2023-06-19T02:46:11;23.50;51.80
18305;DHT22;9278;52.156;21.048;2023-06-19T02:48:42;23.40;51.50
18305;DHT22;9278;52.156;21.048;2023-06-19T02:51:10;23.30;55.00
18305;DHT22;9278;52.156;21.048;2023-06-19T02:53:38;23.30;52.40
18305;DHT22;9278;52.156;21.048;2023-06-19T02:56:09;23.20;52.90
18305;DHT22;9278;52.156;21.048;2023-06-19T02:58:37;23.10;53.00
18305;DHT22;9278;52.156;21.048;2023-06-19T03:01:07;23.10;52.90
18305;DHT22;9278;52.156;21.048;2023-06-19T03:03:36;23.20;53.30
18305;DHT22;9278;52.156;21.048;2023-06-19T03:06:07;23.30;52.70
18305;DHT22;9278;52.156;21.048;2023-06-19T03:08:36;23.40;52.40
18305;DHT22;9278;52.156;21.048;2023-06-19T03:11:05;23.40;51.40
18305;DHT22;9278;52.156;21.048;2023-06-19T03:13:44;23.50;51.90
18305;DHT22;9278;52.156;21.048;2023-06-19T03:16:13;23.50;51.50
18305;DHT22;9278;52.156;21.048;2023-06-19T03:18:43;23.50;51.50
18305;DHT22;9278;52.156;21.048;2023-06-19T03:21:16;23.50;51.90
18305;DHT22;9278;52.156;21.048;2023-06-19T03:23:47;23.50;52.00
18305;DHT22;9278;52.156;21.048;2023-06-19T03:26:18;23.50;51.80
18305;DHT22;9278;52.156;21.048;2023-06-19T03:28:48;23.50;51.70
18305;DHT22;9278;52.156;21.048;2023-06-19T03:31:16;23.50;51.30
18305;DHT22;9278;52.156;21.048;2023-06-19T03:33:44;23.50;52.30
18305;DHT22;9278;52.156;21.048;2023-06-19T03:36:13;23.50;51.90
18305;DHT22;9278;52.156;21.048;2023-06-19T03:39:05;23.50;51.90
18305;DHT22;9278;52.156;21.048;2023-06-19T03:41:34;23.50;51.30
18305;DHT22;9278;52.156;21.048;2023-06-19T03:44:02;23.50;51.20
18305;DHT22;9278;52.156;21.048;2023-06-19T03:46:31;23.50;51.80
18305;DHT22;9278;52.156;21.048;2023-06-19T03:48:59;23.50;50.90
18305;DHT22;9278;52.156;21.048;2023-06-19T03:51:29;23.60;52.00
18305;DHT22;9278;52.156;21.048;2023-06-19T03:53:57;23.60;76.90
18305;DHT22;9278;52.156;21.048;2023-06-19T03:56:27;23.60;51.40
18305;DHT22;9278;52.156;21.048;2023-06-19T03:58:55;23.60;51.60
18305;DHT22;9278;52.156;21.048;2023-06-19T04:01:24;23.60;50.40
18305;DHT22;9278;52.156;21.048;2023-06-19T04:03:53;23.60;51.10
18305;DHT22;9278;52.156;21.048;2023-06-19T04:06:22;23.70;75.70
18305;DHT22;9278;52.156;21.048;2023-06-19T04:08:51;23.70;51.20
18305;DHT22;9278;52.156;21.048;2023-06-19T04:11:19;23.60;50.60
18305;DHT22;9278;52.156;21.048;2023-06-19T04:13:49;23.60;50.50
18305;DHT22;9278;52.156;21.048;2023-06-19T04:16:18;23.60;51.70
18305;DHT22;9278;52.156;21.048;2023-06-19T04:18:47;23.60;51.10
18305;DHT22;9278;52.156;21.048;2023-06-19T04:21:15;23.60;51.90
18305;DHT22;9278;52.156;21.048;2023-06-19T04:23:44;23.60;50.30
18305;DHT22;9278;52.156;21.048;2023-06-19T04:26:12;23.60;51.50
18305;DHT22;9278;52.156;21.048;2023-06-19T04:28:40;23.60;50.90
18305;DHT22;9278;52.156;21.048;2023-06-19T04:31:11;23.70;51.20
18305;DHT22;9278;52.156;21.048;2023-06-19T04:33:39;23.70;51.20
18305;DHT22;9278;52.156;21.048;2023-06-19T04:36:08;23.70;50.40
18305;DHT22;9278;52.156;21.048;2023-06-19T04:38:37;23.80;50.60
18305;DHT22;9278;52.156;21.048;2023-06-19T04:41:05;23.70;51.10
18305;DHT22;9278;52.156;21.048;2023-06-19T04:43:34;23.70;51.30
18305;DHT22;9278;52.156;21.048;2023-06-19T04:46:02;23.70;51.70
18305;DHT22;9278;52.156;21.048;2023-06-19T04:48:32;23.60;51.20
18305;DHT22;9278;52.156;21.048;2023-06-19T04:51:03;23.60;50.90
18305;DHT22;9278;52.156;21.048;2023-06-19T04:53:31;23.60;51.50
18305;DHT22;9278;52.156;21.048;2023-06-19T04:55:59;23.60;51.20
18305;DHT22;9278;52.156;21.048;2023-06-19T04:58:28;23.70;50.90
18305;DHT22;9278;52.156;21.048;2023-06-19T05:00:57;23.70;50.90
18305;DHT22;9278;52.156;21.048;2023-06-19T05:03:25;23.70;50.50
18305;DHT22;9278;52.156;21.048;2023-06-19T05:05:55;23.60;52.30
18305;DHT22;9278;52.156;21.048;2023-06-19T05:08:25;23.70;52.30
18305;DHT22;9278;52.156;21.048;2023-06-19T05:10:54;23.70;51.80
18305;DHT22;9278;52.156;21.048;2023-06-19T05:13:23;23.70;50.70
18305;DHT22;9278;52.156;21.048;2023-06-19T05:15:51;23.80;52.40
18305;DHT22;9278;52.156;21.048;2023-06-19T05:18:20;23.80;51.80
18305;DHT22;9278;52.156;21.048;2023-06-19T05:20:48;23.80;51.00
18305;DHT22;9278;52.156;21.048;2023-06-19T05:23:18;23.80;52.70
18305;DHT22;9278;52.156;21.048;2023-06-19T05:25:46;23.80;51.40
18305;DHT22;9278;52.156;21.048;2023-06-19T05:28:14;23.80;50.60
18305;DHT22;9278;52.156;21.048;2023-06-19T05:30:42;23.80;50.80
18305;DHT22;9278;52.156;21.048;2023-06-19T05:33:11;23.90;50.80
18305;DHT22;9278;52.156;21.048;2023-06-19T05:35:42;23.90;50.90
18305;DHT22;9278;52.156;21.048;2023-06-19T05:38:19;23.90;51.10
18305;DHT22;9278;52.156;21.048;2023-06-19T05:40:48;23.90;49.60
18305;DHT22;9278;52.156;21.048;2023-06-19T05:43:16;24.00;49.60
18305;DHT22;9278;52.156;21.048;2023-06-19T05:45:45;24.00;50.20
18305;DHT22;9278;52.156;21.048;2023-06-19T05:48:13;24.10;50.30
18305;DHT22;9278;52.156;21.048;2023-06-19T05:50:42;24.00;49.30
18305;DHT22;9278;52.156;21.048;2023-06-19T05:53:10;24.00;49.60
18305;DHT22;9278;52.156;21.048;2023-06-19T05:55:43;24.10;49.60
18305;DHT22;9278;52.156;21.048;2023-06-19T05:58:11;24.10;50.10
18305;DHT22;9278;52.156;21.048;2023-06-19T06:00:39;24.10;49.60
18305;DHT22;9278;52.156;21.048;2023-06-19T06:03:08;24.10;48.70
18305;DHT22;9278;52.156;21.048;2023-06-19T06:05:36;24.10;49.70
18305;DHT22;9278;52.156;21.048;2023-06-19T06:08:05;24.20;48.30
18305;DHT22;9278;52.156;21.048;2023-06-19T06:10:33;24.20;48.80
18305;DHT22;9278;52.156;21.048;2023-06-19T06:13:03;24.20;48.90
18305;DHT22;9278;52.156;21.048;2023-06-19T06:15:31;24.20;48.20
18305;DHT22;9278;52.156;21.048;2023-06-19T06:17:59;24.20;48.00
18305;DHT22;9278;52.156;21.048;2023-06-19T06:20:30;24.20;48.50
18305;DHT22;9278;52.156;21.048;2023-06-19T06:22:59;24.20;48.40
18305;DHT22;9278;52.156;21.048;2023-06-19T06:25:27;24.20;48.90
18305;DHT22;9278;52.156;21.048;2023-06-19T06:27:55;24.20;48.90
18305;DHT22;9278;52.156;21.048;2023-06-19T06:30:25;24.20;48.20
18305;DHT22;9278;52.156;21.048;2023-06-19T06:32:54;24.10;49.70
18305;DHT22;9278;52.156;21.048;2023-06-19T06:35:22;24.20;48.30
18305;DHT22;9278;52.156;21.048;2023-06-19T06:37:51;24.20;48.30
18305;DHT22;9278;52.156;21.048;2023-06-19T06:40:19;24.20;47.70
18305;DHT22;9278;52.156;21.048;2023-06-19T06:42:48;24.20;48.00
18305;DHT22;9278;52.156;21.048;2023-06-19T06:45:16;24.30;48.40
18305;DHT22;9278;52.156;21.048;2023-06-19T06:47:46;24.20;49.00
18305;DHT22;9278;52.156;21.048;2023-06-19T06:50:15;24.30;48.10
18305;DHT22;9278;52.156;21.048;2023-06-19T06:52:44;24.30;47.70
18305;DHT22;9278;52.156;21.048;2023-06-19T06:55:12;24.30;48.30
18305;DHT22;9278;52.156;21.048;2023-06-19T06:57:40;24.30;47.50
18305;DHT22;9278;52.156;21.048;2023-06-19T07:00:10;24.30;47.70
18305;DHT22;9278;52.156;21.048;2023-06-19T07:02:38;24.30;48.80
18305;DHT22;9278;52.156;21.048;2023-06-19T07:05:09;24.30;47.50
18305;DHT22;9278;52.156;21.048;2023-06-19T07:07:38;24.40;46.90
18305;DHT22;9278;52.156;21.048;2023-06-19T07:10:08;24.40;47.40
18305;DHT22;9278;52.156;21.048;2023-06-19T07:12:44;24.40;47.60
18305;DHT22;9278;52.156;21.048;2023-06-19T07:15:13;24.40;46.40
18305;DHT22;9278;52.156;21.048;2023-06-19T07:17:41;24.40;46.50
18305;DHT22;9278;52.156;21.048;2023-06-19T07:20:11;24.40;47.70
18305;DHT22;9278;52.156;21.048;2023-06-19T07:22:40;24.40;47.60
18305;DHT22;9278;52.156;21.048;2023-06-19T07:25:10;24.40;71.40
18305;DHT22;9278;52.156;21.048;2023-06-19T07:27:40;24.40;46.90
18305;DHT22;9278;52.156;21.048;2023-06-19T07:30:09;24.40;46.90
18305;DHT22;9278;52.156;21.048;2023-06-19T07:32:42;24.40;47.10
18305;DHT22;9278;52.156;21.048;2023-06-19T07:35:12;24.40;48.30
18305;DHT22;9278;52.156;21.048;2023-06-19T07:37:40;24.40;46.40
18305;DHT22;9278;52.156;21.048;2023-06-19T07:40:10;24.40;46.60
18305;DHT22;9278;52.156;21.048;2023-06-19T07:42:38;24.40;45.90
18305;DHT22;9278;52.156;21.048;2023-06-19T07:45:11;24.40;47.00
18305;DHT22;9278;52.156;21.048;2023-06-19T07:47:40;24.40;45.90
18305;DHT22;9278;52.156;21.048;2023-06-19T07:50:09;24.40;46.50
18305;DHT22;9278;52.156;21.048;2023-06-19T07:52:38;24.50;45.50
18305;DHT22;9278;52.156;21.048;2023-06-19T07:55:07;24.50;47.00
18305;DHT22;9278;52.156;21.048;2023-06-19T07:57:36;24.50;45.50
18305;DHT22;9278;52.156;21.048;2023-06-19T08:00:05;24.40;46.90
18305;DHT22;9278;52.156;21.048;2023-06-19T08:02:38;24.40;46.70
18305;DHT22;9278;52.156;21.048;2023-06-19T08:05:08;24.50;45.80
18305;DHT22;9278;52.156;21.048;2023-06-19T08:07:36;24.50;46.80
18305;DHT22;9278;52.156;21.048;2023-06-19T08:10:07;24.50;46.80
18305;DHT22;9278;52.156;21.048;2023-06-19T08:12:41;24.50;45.50
18305;DHT22;9278;52.156;21.048;2023-06-19T08:15:10;24.50;45.70
18305;DHT22;9278;52.156;21.048;2023-06-19T08:17:40;24.50;46.40
18305;DHT22;9278;52.156;21.048;2023-06-19T08:20:09;24.50;46.10
18305;DHT22;9278;52.156;21.048;2023-06-19T08:22:38;24.50;45.90
18305;DHT22;9278;52.156;21.048;2023-06-19T08:25:08;24.50;45.00
18305;DHT22;9278;52.156;21.048;2023-06-19T08:27:36;24.50;44.60
18305;DHT22;9278;52.156;21.048;2023-06-19T08:30:06;24.50;45.20
18305;DHT22;9278;52.156;21.048;2023-06-19T08:32:34;24.50;45.50
18305;DHT22;9278;52.156;21.048;2023-06-19T08:35:03;24.50;45.00
18305;DHT22;9278;52.156;21.048;2023-06-19T08:37:31;24.50;45.80
18305;DHT22;9278;52.156;21.048;2023-06-19T08:40:00;24.60;46.20
18305;DHT22;9278;52.156;21.048;2023-06-19T08:42:31;24.60;45.10
18305;DHT22;9278;52.156;21.048;2023-06-19T08:44:59;24.50;44.70
18305;DHT22;9278;52.156;21.048;2023-06-19T08:47:29;24.50;44.70
18305;DHT22;9278;52.156;21.048;2023-06-19T08:49:58;24.50;45.40
18305;DHT22;9278;52.156;21.048;2023-06-19T08:52:29;24.50;44.60
18305;DHT22;9278;52.156;21.048;2023-06-19T08:54:57;24.50;44.60
18305;DHT22;9278;52.156;21.048;2023-06-19T08:57:34;24.50;45.50
18305;DHT22;9278;52.156;21.048;2023-06-19T09:00:04;24.60;44.60
18305;DHT22;9278;52.156;21.048;2023-06-19T09:02:38;24.60;44.50
18305;DHT22;9278;52.156;21.048;2023-06-19T09:05:14;24.50;45.60
18305;DHT22;9278;52.156;21.048;2023-06-19T09:07:43;24.60;45.90
18305;DHT22;9278;52.156;21.048;2023-06-19T09:10:14;24.50;69.10
18305;DHT22;9278;52.156;21.048;2023-06-19T09:12:57;24.60;45.40
18305;DHT22;9278;52.156;21.048;2023-06-19T09:15:30;24.60;44.10
18305;DHT22;9278;52.156;21.048;2023-06-19T09:18:01;24.60;44.10
18305;DHT22;9278;52.156;21.048;2023-06-19T09:20:31;24.50;43.70
18305;DHT22;9278;52.156;21.048;2023-06-19T09:22:59;24.60;43.50
18305;DHT22;9278;52.156;21.048;2023-06-19T09:25:28;24.60;43.20
18305;DHT22;9278;52.156;21.048;2023-06-19T09:27:58;24.60;44.70
18305;DHT22;9278;52.156;21.048;2023-06-19T09:30:26;24.50;43.40
18305;DHT22;9278;52.156;21.048;2023-06-19T09:32:54;24.50;42.80
18305;DHT22;9278;52.156;21.048;2023-06-19T09:35:22;24.50;43.60
18305;DHT22;9278;52.156;21.048;2023-06-19T09:37:56;24.60;44.60
18305;DHT22;9278;52.156;21.048;2023-06-19T09:40:25;24.60;43.60
18305;DHT22;9278;52.156;21.048;2023-06-19T09:42:54;24.50;43.80
18305;DHT22;9278;52.156;21.048;2023-06-19T09:45:31;24.60;43.80
18305;DHT22;9278;52.156;21.048;2023-06-19T09:48:00;24.60;42.50
18305;DHT22;9278;52.156;21.048;2023-06-19T09:50:47;24.60;42.50
18305;DHT22;9278;52.156;21.048;2023-06-19T09:53:18;24.60;42.90
18305;DHT22;9278;52.156;21.048;2023-06-19T09:55:48;24.60;42.10
18305;DHT22;9278;52.156;21.048;2023-06-19T09:58:18;24.60;42.40
18305;DHT22;9278;52.156;21.048;2023-06-19T10:00:48;24.60;43.60
18305;DHT22;9278;52.156;21.048;2023-06-19T10:03:17;24.60;41.90
18305;DHT22;9278;52.156;21.048;2023-06-19T10:05:46;24.60;41.60
18305;DHT22;9278;52.156;21.048;2023-06-19T10:08:25;24.60;41.00
18305;DHT22;9278;52.156;21.048;2023-06-19T10:10:55;24.60;41.80
18305;DHT22;9278;52.156;21.048;2023-06-19T10:13:31;24.70;42.40
18305;DHT22;9278;52.156;21.048;2023-06-19T10:16:01;24.60;42.40
18305;DHT22;9278;52.156;21.048;2023-06-19T10:18:31;24.60;41.20
18305;DHT22;9278;52.156;21.048;2023-06-19T10:21:00;24.60;41.00
18305;DHT22;9278;52.156;21.048;2023-06-19T10:23:28;24.70;40.60
18305;DHT22;9278;52.156;21.048;2023-06-19T10:26:06;24.70;41.40
18305;DHT22;9278;52.156;21.048;2023-06-19T10:28:34;24.70;41.30
18305;DHT22;9278;52.156;21.048;2023-06-19T10:31:05;24.60;41.60
18305;DHT22;9278;52.156;21.048;2023-06-19T10:33:35;24.70;65.90
18305;DHT22;9278;52.156;21.048;2023-06-19T10:36:14;24.70;40.40
18305;DHT22;9278;52.156;21.048;2023-06-19T10:38:43;24.70;41.20
18305;DHT22;9278;52.156;21.048;2023-06-19T10:41:15;24.70;40.90
18305;DHT22;9278;52.156;21.048;2023-06-19T10:43:53;24.70;41.20
18305;DHT22;9278;52.156;21.048;2023-06-19T10:46:24;24.70;40.30
18305;DHT22;9278;52.156;21.048;2023-06-19T10:48:54;24.70;39.60
18305;DHT22;9278;52.156;21.048;2023-06-19T10:51:27;24.70;40.20
18305;DHT22;9278;52.156;21.048;2023-06-19T10:53:56;24.70;40.10
18305;DHT22;9278;52.156;21.048;2023-06-19T10:56:24;24.70;39.20
18305;DHT22;9278;52.156;21.048;2023-06-19T10:59:00;24.70;39.80
18305;DHT22;9278;52.156;21.048;2023-06-19T11:01:38;24.70;39.40
18305;DHT22;9278;52.156;21.048;2023-06-19T11:04:07;24.70;39.50
18305;DHT22;9278;52.156;21.048;2023-06-19T11:06:36;24.70;39.40
18305;DHT22;9278;52.156;21.048;2023-06-19T11:09:06;24.70;38.50
18305;DHT22;9278;52.156;21.048;2023-06-19T11:11:36;24.70;62.30
18305;DHT22;9278;52.156;21.048;2023-06-19T11:14:05;24.70;38.60
18305;DHT22;9278;52.156;21.048;2023-06-19T11:16:35;24.70;38.20
18305;DHT22;9278;52.156;21.048;2023-06-19T11:19:07;24.70;37.50
18305;DHT22;9278;52.156;21.048;2023-06-19T11:21:36;24.70;37.80
18305;DHT22;9278;52.156;21.048;2023-06-19T11:24:10;24.80;38.40
18305;DHT22;9278;52.156;21.048;2023-06-19T11:26:38;24.70;38.00
18305;DHT22;9278;52.156;21.048;2023-06-19T11:29:15;24.80;37.30
18305;DHT22;9278;52.156;21.048;2023-06-19T11:31:46;24.80;36.60
18305;DHT22;9278;52.156;21.048;2023-06-19T11:34:15;24.70;36.50
18305;DHT22;9278;52.156;21.048;2023-06-19T11:36:46;24.70;36.70
18305;DHT22;9278;52.156;21.048;2023-06-19T11:39:15;24.70;37.60
18305;DHT22;9278;52.156;21.048;2023-06-19T11:41:44;24.80;36.60
18305;DHT22;9278;52.156;21.048;2023-06-19T11:44:13;24.80;36.70
18305;DHT22;9278;52.156;21.048;2023-06-19T11:46:42;24.80;37.30
18305;DHT22;9278;52.156;21.048;2023-06-19T11:49:13;24.70;36.10
18305;DHT22;9278;52.156;21.048;2023-06-19T11:51:41;24.70;35.50
18305;DHT22;9278;52.156;21.048;2023-06-19T11:54:12;24.70;34.70
18305;DHT22;9278;52.156;21.048;2023-06-19T11:56:41;24.70;35.30
18305;DHT22;9278;52.156;21.048;2023-06-19T11:59:10;24.80;34.60
18305;DHT22;9278;52.156;21.048;2023-06-19T12:01:38;24.80;35.30
18305;DHT22;9278;52.156;21.048;2023-06-19T12:04:06;24.80;35.70
18305;DHT22;9278;52.156;21.048;2023-06-19T12:06:37;24.80;34.00
18305;DHT22;9278;52.156;21.048;2023-06-19T12:09:05;24.70;32.90
18305;DHT22;9278;52.156;21.048;2023-06-19T12:11:33;24.80;33.80
18305;DHT22;9278;52.156;21.048;2023-06-19T12:14:02;24.80;32.70
18305;DHT22;9278;52.156;21.048;2023-06-19T12:16:30;24.80;33.90
18305;DHT22;9278;52.156;21.048;2023-06-19T12:18:58;24.80;34.20
18305;DHT22;9278;52.156;21.048;2023-06-19T12:21:27;24.80;34.30
18305;DHT22;9278;52.156;21.048;2023-06-19T12:24:05;24.80;35.40
18305;DHT22;9278;52.156;21.048;2023-06-19T12:26:34;24.80;33.70
18305;DHT22;9278;52.156;21.048;2023-06-19T12:29:04;24.80;33.70
18305;DHT22;9278;52.156;21.048;2023-06-19T12:31:34;24.80;34.20
18305;DHT22;9278;52.156;21.048;2023-06-19T12:34:03;24.80;32.50
18305;DHT22;9278;52.156;21.048;2023-06-19T12:36:52;24.80;32.10
18305;DHT22;9278;52.156;21.048;2023-06-19T12:39:22;24.80;32.10
18305;DHT22;9278;52.156;21.048;2023-06-19T12:41:51;24.80;33.40
18305;DHT22;9278;52.156;21.048;2023-06-19T12:44:21;24.80;32.90
18305;DHT22;9278;52.156;21.048;2023-06-19T12:46:50;24.80;31.60
18305;DHT22;9278;52.156;21.048;2023-06-19T12:49:19;24.70;32.50
18305;DHT22;9278;52.156;21.048;2023-06-19T12:51:48;24.80;31.50
18305;DHT22;9278;52.156;21.048;2023-06-19T12:54:18;24.80;32.40
18305;DHT22;9278;52.156;21.048;2023-06-19T12:56:48;24.80;32.50
18305;DHT22;9278;52.156;21.048;2023-06-19T12:59:18;24.80;31.50
18305;DHT22;9278;52.156;21.048;2023-06-19T13:01:46;24.90;31.30
18305;DHT22;9278;52.156;21.048;2023-06-19T13:04:14;24.90;32.20
18305;DHT22;9278;52.156;21.048;2023-06-19T13:06:43;24.90;32.10
18305;DHT22;9278;52.156;21.048;2023-06-19T13:09:11;24.90;32.30
18305;DHT22;9278;52.156;21.048;2023-06-19T13:11:40;24.90;30.80
18305;DHT22;9278;52.156;21.048;2023-06-19T13:14:09;24.90;31.80
18305;DHT22;9278;52.156;21.048;2023-06-19T13:16:38;24.90;31.90
18305;DHT22;9278;52.156;21.048;2023-06-19T13:19:13;24.90;31.90
18305;DHT22;9278;52.156;21.048;2023-06-19T13:21:42;24.90;55.20
18305;DHT22;9278;52.156;21.048;2023-06-19T13:24:11;24.90;31.90
18305;DHT22;9278;52.156;21.048;2023-06-19T13:26:39;24.90;33.00
18305;DHT22;9278;52.156;21.048;2023-06-19T13:29:09;24.80;31.80
18305;DHT22;9278;52.156;21.048;2023-06-19T13:31:37;24.80;31.20
18305;DHT22;9278;52.156;21.048;2023-06-19T13:34:06;24.80;32.50
18305;DHT22;9278;52.156;21.048;2023-06-19T13:36:34;24.90;56.20
18305;DHT22;9278;52.156;21.048;2023-06-19T13:39:03;24.90;30.90
18305;DHT22;9278;52.156;21.048;2023-06-19T13:41:31;24.90;31.00
18305;DHT22;9278;52.156;21.048;2023-06-19T13:44:01;24.90;30.50
18305;DHT22;9278;52.156;21.048;2023-06-19T13:46:31;24.90;31.40
18305;DHT22;9278;52.156;21.048;2023-06-19T13:48:59;24.90;31.40
18305;DHT22;9278;52.156;21.048;2023-06-19T13:51:28;24.90;32.20
18305;DHT22;9278;52.156;21.048;2023-06-19T13:53:56;24.90;32.10
18305;DHT22;9278;52.156;21.048;2023-06-19T13:56:24;24.90;31.40
18305;DHT22;9278;52.156;21.048;2023-06-19T13:58:53;24.90;31.90
18305;DHT22;9278;52.156;21.048;2023-06-19T14:01:21;24.90;30.80
18305;DHT22;9278;52.156;21.048;2023-06-19T14:03:53;24.90;31.20
18305;DHT22;9278;52.156;21.048;2023-06-19T14:06:24;24.90;31.50
18305;DHT22;9278;52.156;21.048;2023-06-19T14:08:52;24.90;31.70
18305;DHT22;9278;52.156;21.048;2023-06-19T14:11:21;24.90;31.00
18305;DHT22;9278;52.156;21.048;2023-06-19T14:13:50;24.90;30.80
18305;DHT22;9278;52.156;21.048;2023-06-19T14:16:18;24.90;30.10
18305;DHT22;9278;52.156;21.048;2023-06-19T14:18:46;24.90;29.40
18305;DHT22;9278;52.156;21.048;2023-06-19T14:21:16;24.90;31.00
18305;DHT22;9278;52.156;21.048;2023-06-19T14:23:44;25.00;30.30
18305;DHT22;9278;52.156;21.048;2023-06-19T14:26:13;25.00;30.20
18305;DHT22;9278;52.156;21.048;2023-06-19T14:28:41;25.00;30.00
18305;DHT22;9278;52.156;21.048;2023-06-19T14:31:10;25.00;30.50
18305;DHT22;9278;52.156;21.048;2023-06-19T14:33:38;25.00;30.60
18305;DHT22;9278;52.156;21.048;2023-06-19T14:36:06;25.00;30.20
18305;DHT22;9278;52.156;21.048;2023-06-19T14:38:36;25.00;29.80
18305;DHT22;9278;52.156;21.048;2023-06-19T14:41:04;25.00;30.70
18305;DHT22;9278;52.156;21.048;2023-06-19T14:43:32;25.00;29.50
18305;DHT22;9278;52.156;21.048;2023-06-19T14:46:02;25.00;30.00
18305;DHT22;9278;52.156;21.048;2023-06-19T14:48:32;25.00;30.30
18305;DHT22;9278;52.156;21.048;2023-06-19T14:51:00;25.00;30.50
18305;DHT22;9278;52.156;21.048;2023-06-19T14:53:31;25.00;31.50
18305;DHT22;9278;52.156;21.048;2023-06-19T14:56:01;25.00;30.40
18305;DHT22;9278;52.156;21.048;2023-06-19T14:58:30;25.00;31.00
18305;DHT22;9278;52.156;21.048;2023-06-19T15:00:58;24.90;29.50
18305;DHT22;9278;52.156;21.048;2023-06-19T15:03:26;25.00;31.60
18305;DHT22;9278;52.156;21.048;2023-06-19T15:05:55;25.00;28.70
18305;DHT22;9278;52.156;21.048;2023-06-19T15:08:23;25.10;27.20
18305;DHT22;9278;52.156;21.048;2023-06-19T15:10:51;25.00;28.10
18305;DHT22;9278;52.156;21.048;2023-06-19T15:13:21;25.10;28.10
18305;DHT22;9278;52.156;21.048;2023-06-19T15:15:49;25.00;27.80
18305;DHT22;9278;52.156;21.048;2023-06-19T15:18:18;25.10;28.80
18305;DHT22;9278;52.156;21.048;2023-06-19T15:20:47;25.10;28.10
18305;DHT22;9278;52.156;21.048;2023-06-19T15:23:15;25.00;28.60
18305;DHT22;9278;52.156;21.048;2023-06-19T15:25:44;25.10;29.10
18305;DHT22;9278;52.156;21.048;2023-06-19T15:28:12;25.10;28.10
18305;DHT22;9278;52.156;21.048;2023-06-19T15:30:41;25.10;28.30
18305;DHT22;9278;52.156;21.048;2023-06-19T15:33:09;25.10;28.10
18305;DHT22;9278;52.156;21.048;2023-06-19T15:35:38;25.10;29.10
18305;DHT22;9278;52.156;21.048;2023-06-19T15:38:06;25.10;28.90
18305;DHT22;9278;52.156;21.048;2023-06-19T15:40:35;25.10;28.60
18305;DHT22;9278;52.156;21.048;2023-06-19T15:43:04;25.10;28.30
18305;DHT22;9278;52.156;21.048;2023-06-19T15:45:32;25.10;28.10